Charlottetown, Canada
Current Conditions -  °F | °C
As of 8:44 PM on Monday 24 Nov 2014 (Local Time) from CYYG Reporting Station
Light Rain Light Rain  
Wind Chill: 11°   Ceiling: 1600
Heat Index: 11°   Visibility: 8mi
Dew Point: 11°   Wind: 28mph
Humidity: 100%   Direction: 170°S
Pressure: 29.69"   Gusts: 36mph
Location:  46.24°N, 63.13°W
Report Text: CYYG 250044Z 17024G31KT 8SM -RA FEW006 OVC016 11/11 A2969 RMK SF2NS6 PRESFR SLP055
Loading
Personal Weather Stations






























Interactive Weather Map New forecast layout! Learn more

10-Day Weather Forecast

Advertisements
Track Severe Weather on mobile